createdAt,value
2022-09-17T00:00:53.565Z,94940.44
2022-09-17T00:03:21.290Z,94944.13
2022-09-17T00:05:49.006Z,94947.47
2022-09-17T00:08:16.670Z,94943.50
2022-09-17T00:10:45.811Z,94944.50
2022-09-17T00:13:13.492Z,94954.31
2022-09-17T00:15:42.641Z,94943.69
2022-09-17T00:18:10.714Z,94946.81
2022-09-17T00:20:41.588Z,94951.94
2022-09-17T00:23:09.714Z,94947.91
2022-09-17T00:25:39.579Z,94952.75
2022-09-17T00:28:10.497Z,94950.19
2022-09-17T00:30:40.904Z,94952.88
2022-09-17T00:33:08.979Z,94945.38
2022-09-17T00:35:36.688Z,94953.88
2022-09-17T00:38:04.599Z,94951.16
2022-09-17T00:40:32.423Z,94948.34
2022-09-17T00:43:00.135Z,94957.22
2022-09-17T00:45:30.045Z,94951.78
2022-09-17T00:48:00.151Z,94952.56
2022-09-17T00:50:31.224Z,94961.22
2022-09-17T00:53:02.680Z,94956.59
2022-09-17T00:55:34.446Z,94958.59
2022-09-17T00:58:05.641Z,94960.41
2022-09-17T01:00:35.055Z,94959.50
2022-09-17T01:03:02.790Z,94960.88
2022-09-17T01:05:37.287Z,94967.63
2022-09-17T01:08:13.849Z,94962.50
2022-09-17T01:11:13.860Z,94963.88
2022-09-17T01:13:53.467Z,94968.22
2022-09-17T01:16:32.542Z,94961.41
2022-09-17T01:19:12.703Z,94961.63
2022-09-17T01:21:52.148Z,94957.88
2022-09-17T01:24:44.539Z,94955.09
2022-09-17T01:27:43.691Z,94959.78
2022-09-17T01:30:29.351Z,94970.28
2022-09-17T01:33:00.576Z,94963.56
2022-09-17T01:35:38.153Z,94964.13
2022-09-17T01:38:13.198Z,94970.88
2022-09-17T01:40:52.824Z,94965.31
2022-09-17T01:43:27.916Z,94968.25
2022-09-17T01:46:06.905Z,94961.31
2022-09-17T01:48:38.254Z,94963.22
2022-09-17T01:51:08.826Z,94959.19
2022-09-17T01:53:40.812Z,94962.13
2022-09-17T01:56:12.726Z,94963.13
2022-09-17T01:58:46.864Z,94956.38
2022-09-17T02:01:18.715Z,94964.72
2022-09-17T02:03:52.023Z,94968.53
2022-09-17T02:06:25.694Z,94963.38
2022-09-17T02:08:57.414Z,94954.25
2022-09-17T02:11:26.286Z,94954.03
2022-09-17T02:13:59.597Z,94962.16
2022-09-17T02:16:31.730Z,94945.16
2022-09-17T02:19:07.531Z,94942.09
2022-09-17T02:21:44.998Z,94948.09
2022-09-17T02:24:18.970Z,94954.47
2022-09-17T02:26:52.233Z,94947.13
2022-09-17T02:29:27.490Z,94932.06
2022-09-17T02:31:56.740Z,94943.50
2022-09-17T02:34:27.550Z,94941.09
2022-09-17T02:37:01.833Z,94931.94
2022-09-17T02:39:29.549Z,94928.13
2022-09-17T02:42:06.914Z,94927.59
2022-09-17T02:44:47.385Z,94924.59
2022-09-17T02:47:53.760Z,94909.66
2022-09-17T02:50:52.589Z,94907.31
2022-09-17T02:53:36.339Z,94898.59
2022-09-17T02:56:13.971Z,94905.50
2022-09-17T02:58:48.493Z,94904.59
2022-09-17T03:01:22.024Z,94898.19
2022-09-17T03:03:53.868Z,94893.56
2022-09-17T03:06:22.504Z,94897.16
2022-09-17T03:08:50.347Z,94884.41
2022-09-17T03:11:18.177Z,94890.44
2022-09-17T03:13:45.970Z,94899.22
2022-09-17T03:16:13.677Z,94893.31
2022-09-17T03:18:41.425Z,94888.47
2022-09-17T03:21:12.428Z,94887.88
2022-09-17T03:23:40.213Z,94897.31
2022-09-17T03:26:07.924Z,94904.72
2022-09-17T03:28:35.627Z,94898.63
2022-09-17T03:31:03.735Z,94894.63
2022-09-17T03:33:31.477Z,94893.09
2022-09-17T03:35:59.181Z,94902.94
2022-09-17T03:38:28.605Z,94901.44
2022-09-17T03:41:00.187Z,94901.25
2022-09-17T03:43:28.175Z,94902.25
2022-09-17T03:45:55.921Z,94914.56
2022-09-17T03:48:23.882Z,94911.38
2022-09-17T03:50:51.622Z,94908.88
2022-09-17T03:53:19.610Z,94912.03
2022-09-17T03:55:48.633Z,94905.75
2022-09-17T03:58:16.278Z,94914.88
2022-09-17T04:00:44.036Z,94911.41
2022-09-17T04:03:12.706Z,94908.75
2022-09-17T04:05:40.371Z,94905.22
2022-09-17T04:08:08.059Z,94906.56
2022-09-17T04:10:35.759Z,94901.72
2022-09-17T04:13:04.818Z,94915.25
2022-09-17T04:15:32.536Z,94908.16
2022-09-17T04:18:00.271Z,94904.66
2022-09-17T04:20:28.787Z,94904.06
2022-09-17T04:22:56.473Z,94903.69
2022-09-17T04:25:24.489Z,94890.44
2022-09-17T04:27:52.465Z,94895.00
2022-09-17T04:30:21.693Z,94896.97
2022-09-17T04:32:49.375Z,94904.84
2022-09-17T04:35:17.570Z,94908.69
2022-09-17T04:37:45.273Z,94921.72
2022-09-17T04:40:13.058Z,94924.13
2022-09-17T04:42:40.847Z,94935.84
2022-09-17T04:45:08.950Z,94936.66
2022-09-17T04:47:40.908Z,94954.13
2022-09-17T04:50:09.282Z,94951.72
2022-09-17T04:52:36.977Z,94958.91
2022-09-17T04:55:05.427Z,94967.75
2022-09-17T04:57:33.124Z,94983.72
2022-09-17T05:00:00.833Z,94993.31
2022-09-17T05:02:28.629Z,94991.41
2022-09-17T05:04:58.334Z,94995.34
2022-09-17T05:07:26.190Z,95005.69
2022-09-17T05:09:53.909Z,95006.47
2022-09-17T05:12:21.619Z,95004.53
2022-09-17T05:14:49.309Z,95002.81
2022-09-17T05:17:17.217Z,95015.28
2022-09-17T05:19:44.922Z,95017.69
2022-09-17T05:22:16.388Z,95040.03
2022-09-17T05:24:46.098Z,95036.38
2022-09-17T05:27:14.008Z,95045.41
2022-09-17T05:29:41.709Z,95045.03
2022-09-17T05:32:09.424Z,95046.34
2022-09-17T05:34:37.147Z,95058.78
2022-09-17T05:37:04.852Z,95063.69
2022-09-17T05:39:33.923Z,95056.97
2022-09-17T05:42:01.650Z,95061.66
2022-09-17T05:44:29.791Z,95067.34
2022-09-17T05:46:57.561Z,95065.28
2022-09-17T05:49:25.303Z,95072.03
2022-09-17T05:51:53.027Z,95078.34
2022-09-17T05:54:20.771Z,95071.59
2022-09-17T05:56:49.816Z,95072.97
2022-09-17T05:59:17.536Z,95070.56
2022-09-17T06:01:46.063Z,95065.94
2022-09-17T06:04:14.025Z,95071.34
2022-09-17T06:06:41.847Z,95070.03
2022-09-17T06:09:10.461Z,95064.19
2022-09-17T06:11:38.559Z,95063.25
2022-09-17T06:14:07.672Z,95061.72
2022-09-17T06:16:35.513Z,95062.56
2022-09-17T06:19:04.154Z,95063.03
2022-09-17T06:21:31.959Z,95063.03
2022-09-17T06:23:59.781Z,95065.28
2022-09-17T06:26:27.604Z,95060.91
2022-09-17T06:28:55.347Z,95062.50
2022-09-17T06:31:24.498Z,95069.69
2022-09-17T06:33:52.701Z,95074.44
2022-09-17T06:36:20.538Z,95071.41
2022-09-17T06:38:48.228Z,95072.22
2022-09-17T06:41:16.953Z,95067.53
2022-09-17T06:43:45.017Z,95064.63
2022-09-17T06:46:13.297Z,95073.97
2022-09-17T06:48:42.411Z,95066.94
2022-09-17T06:51:12.347Z,95076.75
2022-09-17T06:53:40.711Z,95067.00
2022-09-17T06:56:10.268Z,95067.34
2022-09-17T06:58:38.848Z,95071.63
2022-09-17T07:01:07.369Z,95061.59
2022-09-17T07:03:35.485Z,95057.94
2022-09-17T07:06:05.212Z,95047.25
2022-09-17T07:08:35.033Z,95051.06
2022-09-17T07:11:02.970Z,95046.50
2022-09-17T07:13:30.734Z,95044.72
2022-09-17T07:16:00.849Z,95044.66
2022-09-17T07:18:28.982Z,95053.16
2022-09-17T07:20:57.751Z,95052.50
2022-09-17T07:23:29.066Z,95049.84
2022-09-17T07:25:58.741Z,95045.31
2022-09-17T07:28:27.164Z,95038.81
2022-09-17T07:30:55.663Z,95038.00
2022-09-17T07:33:26.143Z,95035.69
2022-09-17T07:35:54.768Z,95024.81
2022-09-17T07:38:22.812Z,95034.19
2022-09-17T07:41:00.108Z,95028.47
2022-09-17T07:43:29.904Z,95032.56
2022-09-17T07:45:59.125Z,95020.81
2022-09-17T07:48:28.155Z,95031.56
2022-09-17T07:50:56.787Z,95034.28
2022-09-17T07:53:24.862Z,95027.44
2022-09-17T07:55:53.314Z,95021.56
2022-09-17T07:58:22.857Z,95036.41
2022-09-17T08:00:51.012Z,95036.69
2022-09-17T08:03:18.755Z,95033.63
2022-09-17T08:05:46.472Z,95030.75
2022-09-17T08:08:17.652Z,95032.22
2022-09-17T08:10:48.155Z,95058.88
2022-09-17T08:13:18.664Z,95053.56
2022-09-17T08:15:47.784Z,95048.72
2022-09-17T08:18:17.283Z,95048.19
2022-09-17T08:20:45.064Z,95057.59
2022-09-17T08:23:12.794Z,95048.81
2022-09-17T08:25:40.486Z,95047.53
2022-09-17T08:28:08.213Z,95044.31
2022-09-17T08:30:35.923Z,95051.88
2022-09-17T08:33:05.020Z,95051.19
2022-09-17T08:35:32.743Z,95059.44
2022-09-17T08:38:00.659Z,95056.53
2022-09-17T08:40:28.539Z,95062.16
2022-09-17T08:43:00.538Z,95067.53
2022-09-17T08:45:28.767Z,95072.09
2022-09-17T08:48:05.097Z,95064.84
2022-09-17T08:50:39.121Z,95073.41
2022-09-17T08:53:27.954Z,95075.00
2022-09-17T08:56:05.673Z,95077.34
2022-09-17T08:58:42.267Z,95086.50
2022-09-17T09:01:25.117Z,95084.59
2022-09-17T09:04:16.157Z,95085.31
2022-09-17T09:06:50.472Z,95085.31
2022-09-17T09:09:21.128Z,95087.59
2022-09-17T09:11:51.169Z,95091.00
2022-09-17T09:14:24.066Z,95088.09
2022-09-17T09:16:55.214Z,95094.09
2022-09-17T09:19:25.016Z,95090.47
2022-09-17T09:22:04.713Z,95095.19
2022-09-17T09:24:46.797Z,95092.94
2022-09-17T09:27:21.859Z,95095.19
2022-09-17T09:30:03.767Z,95087.03
2022-09-17T09:32:44.835Z,95094.78
2022-09-17T09:35:19.396Z,95090.13
2022-09-17T09:37:55.368Z,95090.44
2022-09-17T09:40:33.494Z,95101.09
2022-09-17T09:43:04.556Z,95106.22
2022-09-17T09:45:50.329Z,95107.25
2022-09-17T09:48:31.497Z,95115.19
2022-09-17T09:51:14.943Z,95112.09
2022-09-17T09:53:56.068Z,95100.09
2022-09-17T09:56:35.207Z,95100.91
2022-09-17T09:59:02.894Z,95102.91
2022-09-17T10:01:32.446Z,95092.47
2022-09-17T10:04:00.264Z,95104.16
2022-09-17T10:06:32.026Z,95104.53
2022-09-17T10:09:16.457Z,95100.69
2022-09-17T10:11:59.761Z,95108.44
2022-09-17T10:14:30.108Z,95105.63
2022-09-17T10:17:17.612Z,95120.16
2022-09-17T10:19:46.693Z,95123.00
2022-09-17T10:22:33.842Z,95130.59
2022-09-17T10:25:04.768Z,95127.78
2022-09-17T10:27:33.296Z,95145.28
2022-09-17T10:30:14.429Z,95142.75
2022-09-17T10:32:42.670Z,95145.19
2022-09-17T10:35:27.493Z,95154.69
2022-09-17T10:37:55.717Z,95144.50
2022-09-17T10:40:31.031Z,95146.34
2022-09-17T10:43:22.312Z,95146.56
2022-09-17T10:46:01.192Z,95145.31
2022-09-17T10:48:33.906Z,95138.19
2022-09-17T10:51:03.282Z,95140.38
2022-09-17T10:53:30.989Z,95137.13
2022-09-17T10:56:15.150Z,95134.63
2022-09-17T10:58:56.153Z,95137.91
2022-09-17T11:01:36.305Z,95138.41
2022-09-17T11:04:25.830Z,95145.44
2022-09-17T11:07:33.303Z,95134.81
2022-09-17T11:10:12.397Z,95138.41
2022-09-17T11:13:04.250Z,95143.91
2022-09-17T11:15:52.918Z,95142.25
2022-09-17T11:18:37.315Z,95135.72
2022-09-17T11:21:27.604Z,95140.69
2022-09-17T11:24:22.253Z,95133.81
2022-09-17T11:26:58.129Z,95130.03
2022-09-17T11:29:43.226Z,95125.72
2022-09-17T11:32:31.002Z,95125.28
2022-09-17T11:35:03.990Z,95123.59
2022-09-17T11:37:38.960Z,95119.91
2022-09-17T11:40:14.268Z,95117.22
2022-09-17T11:42:48.006Z,95132.84
2022-09-17T11:45:21.473Z,95125.50
2022-09-17T11:47:53.265Z,95128.28
2022-09-17T11:50:23.925Z,95123.97
2022-09-17T11:53:04.754Z,95118.09
2022-09-17T11:55:39.453Z,95116.16
2022-09-17T11:58:13.911Z,95105.16
2022-09-17T12:00:51.300Z,95093.47
2022-09-17T12:03:27.314Z,95096.78
2022-09-17T12:05:58.082Z,95093.34
2022-09-17T12:08:30.401Z,95091.00
2022-09-17T12:11:04.221Z,95088.59
2022-09-17T12:13:37.505Z,95079.03
2022-09-17T12:16:16.946Z,95069.81
2022-09-17T12:18:54.089Z,95063.47
2022-09-17T12:21:27.897Z,95063.56
2022-09-17T12:24:00.172Z,95071.22
2022-09-17T12:26:46.706Z,95070.81
2022-09-17T12:29:31.147Z,95065.47
2022-09-17T12:32:10.225Z,95076.94
2022-09-17T12:34:50.367Z,95086.44
2022-09-17T12:37:28.530Z,95089.88
2022-09-17T12:40:16.949Z,95097.50
2022-09-17T12:43:10.904Z,95098.16
2022-09-17T12:45:54.909Z,95106.13
2022-09-17T12:49:04.178Z,95106.91
2022-09-17T12:51:53.108Z,95104.97
2022-09-17T12:54:36.500Z,95102.84
2022-09-17T12:57:13.809Z,95105.06
2022-09-17T12:59:50.414Z,95093.56
2022-09-17T13:02:23.737Z,95085.50
2022-09-17T13:05:18.608Z,95067.69
2022-09-17T13:08:14.226Z,95061.25
2022-09-17T13:10:54.347Z,95051.28
2022-09-17T13:13:36.773Z,95060.06
2022-09-17T13:16:15.565Z,95059.53
2022-09-17T13:21:53.408Z,95075.00
2022-09-17T13:24:25.178Z,95076.31
2022-09-17T13:26:54.807Z,95076.13
2022-09-17T13:30:03.928Z,95074.69
2022-09-17T13:32:53.861Z,95075.50
2022-09-17T13:35:52.391Z,95081.00
2022-09-17T13:38:23.908Z,95089.28
2022-09-17T13:41:13.807Z,95093.78
2022-09-17T13:43:47.726Z,95095.06
2022-09-17T13:46:24.457Z,95108.09
2022-09-17T13:48:58.445Z,95117.59
2022-09-17T13:51:52.598Z,95106.47
2022-09-17T13:54:24.461Z,95101.69
2022-09-17T13:57:11.022Z,95101.63
2022-09-17T13:59:39.512Z,95098.59
2022-09-17T14:02:37.401Z,95096.31
2022-09-17T14:05:36.758Z,95091.69
2022-09-17T14:08:29.036Z,95093.13
2022-09-17T14:11:00.787Z,95091.28
2022-09-17T14:13:46.390Z,95080.25
2022-09-17T14:16:46.348Z,95086.03
2022-09-17T14:19:27.874Z,95080.44
2022-09-17T14:22:02.574Z,95077.72
2022-09-17T14:24:36.983Z,95089.16
2022-09-17T14:27:31.099Z,95080.53
2022-09-17T14:30:22.066Z,95071.88
2022-09-17T14:32:57.561Z,95075.63
2022-09-17T14:35:31.033Z,95069.97
2022-09-17T14:38:01.252Z,95065.47
2022-09-17T14:40:31.844Z,95067.91
2022-09-17T14:43:03.195Z,95065.63
2022-09-17T14:45:34.287Z,95073.91
2022-09-17T14:48:36.948Z,95072.06
2022-09-17T14:51:29.702Z,95071.44
2022-09-17T14:54:25.021Z,95074.75
2022-09-17T14:56:56.009Z,95066.34
2022-09-17T14:59:45.295Z,95068.44
2022-09-17T15:02:30.261Z,95074.69
2022-09-17T15:04:59.085Z,95086.94
2022-09-17T15:07:28.078Z,95099.25
2022-09-17T15:09:56.211Z,95108.34
2022-09-17T15:12:30.645Z,95109.78
2022-09-17T15:14:59.034Z,95108.81
2022-09-17T15:17:33.860Z,95115.84
2022-09-17T15:20:06.640Z,95118.66
2022-09-17T15:22:37.776Z,95121.75
2022-09-17T15:25:09.560Z,95142.53
2022-09-17T15:27:40.510Z,95140.28
2022-09-17T15:30:14.545Z,95141.38
2022-09-17T15:32:49.613Z,95126.25
2022-09-17T15:35:24.512Z,95121.84
2022-09-17T15:38:18.849Z,95130.34
2022-09-17T15:40:43.825Z,95129.59
2022-09-17T15:43:19.732Z,95128.81
2022-09-17T15:45:47.564Z,95132.66
2022-09-17T15:48:39.526Z,95137.19
2022-09-17T15:51:22.499Z,95136.09
2022-09-17T15:53:53.311Z,95136.06
2022-09-17T15:56:25.179Z,95135.28
2022-09-17T15:58:56.196Z,95144.47
2022-09-17T16:01:52.159Z,95150.72
2022-09-17T16:04:34.980Z,95140.72
2022-09-17T16:07:24.248Z,95146.47
2022-09-17T16:09:53.171Z,95147.44
2022-09-17T16:12:23.268Z,95139.25
2022-09-17T16:14:53.335Z,95126.72
2022-09-17T16:17:33.000Z,95125.16
2022-09-17T16:20:08.907Z,95135.47
2022-09-17T16:22:36.611Z,95142.31
2022-09-17T16:25:05.190Z,95141.78
2022-09-17T16:27:45.357Z,95155.06
2022-09-17T16:30:17.593Z,95156.97
2022-09-17T16:32:45.281Z,95149.41
2022-09-17T16:35:17.893Z,95152.13
2022-09-17T16:37:45.959Z,95148.09
2022-09-17T16:40:14.294Z,95146.50
2022-09-17T16:42:42.047Z,95145.41
2022-09-17T16:45:11.896Z,95155.66
2022-09-17T16:47:44.802Z,95163.75
2022-09-17T16:50:15.903Z,95170.25
2022-09-17T16:52:43.982Z,95171.09
2022-09-17T16:55:13.617Z,95166.22
2022-09-17T16:57:41.590Z,95173.25
2022-09-17T17:00:14.041Z,95177.28
2022-09-17T17:02:41.828Z,95189.75
2022-09-17T17:05:11.473Z,95184.91
2022-09-17T17:07:45.441Z,95183.00
2022-09-17T17:10:15.390Z,95190.34
2022-09-17T17:12:43.159Z,95182.59
2022-09-17T17:15:11.245Z,95201.56
2022-09-17T17:17:39.125Z,95192.66
2022-09-17T17:20:09.502Z,95191.34
2022-09-17T17:22:38.051Z,95183.00
2022-09-17T17:25:08.355Z,95197.38
2022-09-17T17:27:39.184Z,95202.53
2022-09-17T17:30:16.700Z,95206.09
2022-09-17T17:32:45.884Z,95205.31
2022-09-17T17:35:13.568Z,95207.75
2022-09-17T17:37:41.267Z,95205.59
2022-09-17T17:40:11.389Z,95210.19
2022-09-17T17:42:44.147Z,95212.66
2022-09-17T17:45:12.289Z,95205.63
2022-09-17T17:47:40.046Z,95212.69
2022-09-17T17:50:08.647Z,95221.59
2022-09-17T17:52:39.016Z,95219.69
2022-09-17T17:55:07.600Z,95224.84
2022-09-17T17:57:36.664Z,95226.44
2022-09-17T18:00:05.055Z,95229.97
2022-09-17T18:02:32.892Z,95236.47
2022-09-17T18:05:04.092Z,95244.06
2022-09-17T18:07:32.285Z,95250.03
2022-09-17T18:10:00.047Z,95253.84
2022-09-17T18:12:27.898Z,95260.59
2022-09-17T18:14:57.047Z,95260.91
2022-09-17T18:17:24.821Z,95267.66
2022-09-17T18:19:52.602Z,95269.00
2022-09-17T18:22:20.350Z,95265.47
2022-09-17T18:24:48.180Z,95272.47
2022-09-17T18:27:17.602Z,95279.50
2022-09-17T18:29:45.310Z,95283.56
2022-09-17T18:32:14.409Z,95288.13
2022-09-17T18:34:42.481Z,95289.47
2022-09-17T18:37:10.801Z,95289.47
2022-09-17T18:39:58.009Z,95291.09
2022-09-17T18:42:28.790Z,95297.06
2022-09-17T18:44:58.214Z,95293.22
2022-09-17T18:47:27.311Z,95294.59
2022-09-17T18:49:55.046Z,95298.63
2022-09-17T18:52:22.741Z,95298.34
2022-09-17T18:54:50.656Z,95291.31
2022-09-17T18:57:18.371Z,95298.34
2022-09-17T18:59:46.308Z,95296.19
2022-09-17T19:02:14.175Z,95291.59
2022-09-17T19:04:43.414Z,95298.31
2022-09-17T19:07:11.617Z,95303.16
2022-09-17T19:09:42.249Z,95295.59
2022-09-17T19:12:09.929Z,95300.47
2022-09-17T19:14:37.674Z,95304.78
2022-09-17T19:17:05.493Z,95304.78
2022-09-17T19:19:33.231Z,95307.22
2022-09-17T19:22:02.312Z,95308.03
2022-09-17T19:24:30.014Z,95301.81
2022-09-17T19:26:58.822Z,95300.47
2022-09-17T19:29:27.445Z,95303.16
2022-09-17T19:31:55.215Z,95306.41
2022-09-17T19:34:22.925Z,95299.09
2022-09-17T19:36:50.659Z,95305.84
2022-09-17T19:39:20.062Z,95295.03
2022-09-17T19:41:48.035Z,95296.13
2022-09-17T19:44:15.697Z,95297.47
2022-09-17T19:46:43.887Z,95289.59
2022-09-17T19:49:13.768Z,95296.63
2022-09-17T19:51:41.517Z,95296.34
2022-09-17T19:54:10.230Z,95294.16
2022-09-17T19:56:41.964Z,95287.94
2022-09-17T19:59:09.787Z,95286.53
2022-09-17T20:01:37.887Z,95280.28
2022-09-17T20:04:07.011Z,95282.44
2022-09-17T20:06:36.471Z,95274.88
2022-09-17T20:09:04.459Z,95276.44
2022-09-17T20:11:32.354Z,95266.41
2022-09-17T20:14:06.393Z,95266.09
2022-09-17T20:16:35.810Z,95270.13
2022-09-17T20:19:04.381Z,95267.94
2022-09-17T20:21:32.156Z,95270.09
2022-09-17T20:24:00.806Z,95273.06
2022-09-17T20:26:28.727Z,95279.56
2022-09-17T20:28:56.609Z,95292.53
2022-09-17T20:31:29.479Z,95305.31
2022-09-17T20:33:59.399Z,95308.13
2022-09-17T20:36:30.671Z,95302.00
2022-09-17T20:39:21.158Z,95292.34
2022-09-17T20:41:46.446Z,95296.41
2022-09-17T20:44:14.304Z,95306.41
2022-09-17T20:46:43.620Z,95294.53
2022-09-17T20:49:11.342Z,95291.00
2022-09-17T20:51:39.073Z,95295.13
2022-09-17T20:54:07.611Z,95301.06
2022-09-17T20:56:39.232Z,95297.81
2022-09-17T20:59:13.395Z,95303.72
2022-09-17T21:01:44.984Z,95299.94
2022-09-17T21:04:16.420Z,95300.47
2022-09-17T21:06:45.136Z,95313.44
2022-09-17T21:09:18.079Z,95316.69
2022-09-17T21:11:49.253Z,95308.59
2022-09-17T21:14:18.231Z,95315.88
2022-09-17T21:16:49.168Z,95312.91
2022-09-17T21:19:16.953Z,95311.28
2022-09-17T21:21:45.132Z,95319.16
2022-09-17T21:24:12.810Z,95316.22
2022-09-17T21:26:43.517Z,95315.41
2022-09-17T21:29:11.221Z,95328.41
2022-09-17T21:31:39.622Z,95329.75
2022-09-17T21:34:12.146Z,95337.56
2022-09-17T21:36:41.630Z,95336.75
2022-09-17T21:39:13.188Z,95341.66
2022-09-17T21:41:42.800Z,95350.84
2022-09-17T21:44:11.423Z,95351.66
2022-09-17T21:46:40.252Z,95346.53
2022-09-17T21:49:09.995Z,95355.19
2022-09-17T21:51:41.447Z,95342.78
2022-09-17T21:54:11.672Z,95349.25
2022-09-17T21:56:40.026Z,95348.44
2022-09-17T21:59:09.377Z,95345.44
2022-09-17T22:01:40.304Z,95353.81
2022-09-17T22:04:12.529Z,95357.59
2022-09-17T22:06:41.202Z,95357.03
2022-09-17T22:09:14.456Z,95354.59
2022-09-17T22:11:42.557Z,95345.44
2022-09-17T22:14:12.415Z,95333.81
2022-09-17T22:16:42.475Z,95344.09
2022-09-17T22:19:13.024Z,95352.44
2022-09-17T22:21:42.643Z,95348.66
2022-09-17T22:24:11.737Z,95335.72
2022-09-17T22:26:43.304Z,95339.47
2022-09-17T22:29:14.363Z,95343.50
2022-09-17T22:31:42.415Z,95341.31
2022-09-17T22:34:15.171Z,95337.53
2022-09-17T22:36:43.372Z,95330.53
2022-09-17T22:39:11.636Z,95330.78
2022-09-17T22:41:44.224Z,95338.06
2022-09-17T22:44:14.046Z,95335.09
2022-09-17T22:46:42.880Z,95335.91
2022-09-17T22:49:12.431Z,95340.78
2022-09-17T22:51:41.311Z,95339.41
2022-09-17T22:54:12.102Z,95351.28
2022-09-17T22:56:40.489Z,95346.44
2022-09-17T22:59:08.674Z,95348.88
2022-09-17T23:06:00.846Z,62988.50
2022-09-17T23:08:29.004Z,62988.50
2022-09-17T23:10:56.861Z,62988.50
2022-09-17T23:13:24.829Z,62988.50
2022-09-17T23:15:52.609Z,62988.50
2022-09-17T23:18:21.660Z,62988.50
2022-09-17T23:20:58.187Z,62988.50
2022-09-17T23:23:27.472Z,62988.50
2022-09-17T23:25:55.932Z,62988.50
2022-09-17T23:28:23.716Z,62988.50
2022-09-17T23:30:51.949Z,62988.50
2022-09-17T23:33:19.661Z,62988.50
2022-09-17T23:35:47.317Z,62988.50
2022-09-17T23:38:15.180Z,62988.50
2022-09-17T23:40:44.238Z,62988.50
2022-09-17T23:43:11.909Z,62988.50
2022-09-17T23:45:39.592Z,62988.50
2022-09-17T23:48:09.399Z,62988.50
2022-09-17T23:50:37.053Z,62988.50
2022-09-17T23:53:04.740Z,62988.50
2022-09-17T23:55:32.467Z,62988.50
2022-09-17T23:58:01.502Z,62988.50
